createdAt,value
2022-08-03T00:03:26.960Z,17.81
2022-08-03T00:13:27.052Z,17.66
2022-08-03T00:23:31.738Z,17.50
2022-08-03T00:33:28.380Z,17.47
2022-08-03T00:43:28.586Z,17.71
2022-08-03T00:53:27.751Z,17.43
2022-08-03T01:03:27.949Z,17.88
2022-08-03T01:14:01.983Z,17.46
2022-08-03T01:23:28.776Z,17.26
2022-08-03T01:33:28.663Z,17.36
2022-08-03T01:44:26.485Z,17.30
2022-08-03T01:53:29.955Z,17.03
2022-08-03T02:03:28.915Z,16.80
2022-08-03T02:13:30.205Z,16.78
2022-08-03T02:23:29.572Z,16.62
2022-08-03T02:33:29.410Z,16.62
2022-08-03T02:43:29.821Z,16.60
2022-08-03T02:53:30.744Z,16.78
2022-08-03T03:03:29.915Z,16.62
2022-08-03T03:13:31.097Z,16.48
2022-08-03T03:23:30.256Z,16.33
2022-08-03T03:33:30.583Z,16.27
2022-08-03T03:43:30.640Z,16.14
2022-08-03T03:53:30.831Z,16.06
2022-08-03T04:03:31.036Z,16.11
2022-08-03T04:13:31.219Z,16.12
2022-08-03T04:23:31.379Z,16.49
2022-08-03T04:33:31.541Z,16.71
2022-08-03T04:43:31.748Z,16.56
2022-08-03T04:53:31.910Z,16.60
2022-08-03T05:03:32.083Z,16.89
2022-08-03T05:13:32.276Z,17.22
2022-08-03T05:23:32.454Z,17.48
2022-08-03T05:33:32.616Z,17.70
2022-08-03T05:43:32.972Z,18.04
2022-08-03T05:53:32.912Z,18.29
2022-08-03T06:03:33.222Z,18.49
2022-08-03T06:13:33.286Z,18.86
2022-08-03T06:23:53.319Z,19.42
2022-08-03T06:34:30.228Z,19.76
2022-08-03T06:43:35.717Z,19.98
2022-08-03T06:53:33.933Z,20.28
2022-08-03T07:03:34.003Z,20.42
2022-08-03T07:13:34.187Z,20.81
2022-08-03T07:23:34.336Z,21.32
2022-08-03T07:33:34.500Z,21.85
2022-08-03T07:43:34.666Z,22.52
2022-08-03T07:53:37.914Z,23.12
2022-08-03T08:03:49.868Z,23.52
2022-08-03T08:13:36.259Z,24.13
2022-08-03T08:23:42.462Z,24.57
2022-08-03T08:34:01.349Z,25.09
2022-08-03T08:43:37.065Z,25.69
2022-08-03T08:53:36.022Z,26.06
2022-08-03T09:03:36.236Z,26.87
2022-08-03T09:13:36.412Z,27.58
2022-08-03T09:23:59.587Z,29.13
2022-08-03T09:33:37.780Z,31.20
2022-08-03T09:43:36.959Z,32.39
2022-08-03T09:53:37.173Z,32.07
2022-08-03T10:04:03.206Z,33.90
2022-08-03T10:13:38.513Z,33.61
2022-08-03T10:23:37.684Z,33.20
2022-08-03T10:33:49.652Z,33.49
2022-08-03T10:43:39.026Z,33.67
2022-08-03T10:53:38.207Z,34.14
2022-08-03T11:03:38.446Z,33.11
2022-08-03T11:13:38.769Z,32.85
2022-08-03T11:24:02.835Z,32.64
2022-08-03T11:33:40.026Z,33.06
2022-08-03T11:43:39.296Z,33.23
2022-08-03T11:53:41.782Z,33.15
2022-08-03T12:03:39.982Z,33.71
2022-08-03T12:14:32.970Z,33.43
2022-08-03T12:23:41.022Z,33.87
2022-08-03T12:33:40.103Z,34.31
2022-08-03T12:43:40.269Z,34.09
2022-08-03T12:53:40.633Z,34.02
2022-08-03T13:03:42.556Z,34.11
2022-08-03T13:13:40.885Z,33.71
2022-08-03T13:23:40.957Z,33.89
2022-08-03T13:33:41.453Z,34.92
2022-08-03T13:43:41.322Z,34.66
2022-08-03T13:53:41.503Z,34.09
2022-08-03T14:03:41.990Z,34.34
2022-08-03T14:13:41.897Z,35.03
2022-08-03T14:23:42.012Z,36.27
2022-08-03T14:33:42.204Z,34.92
2022-08-03T14:43:42.377Z,34.88
2022-08-03T14:53:43.568Z,35.50
2022-08-03T15:03:43.016Z,35.36
2022-08-03T15:13:43.016Z,35.70
2022-08-03T15:23:43.225Z,36.57
2022-08-03T15:33:43.423Z,35.74
2022-08-03T15:43:47.599Z,37.78
2022-08-03T15:53:43.750Z,36.27
2022-08-03T16:03:43.972Z,35.99
2022-08-03T16:14:12.340Z,38.99
2022-08-03T16:23:45.366Z,39.09
2022-08-03T16:33:44.522Z,39.14
2022-08-03T16:43:44.722Z,39.54
2022-08-03T16:54:05.233Z,39.84
2022-08-03T17:04:02.672Z,38.98
2022-08-03T17:13:47.319Z,38.80
2022-08-03T17:23:45.477Z,36.80
2022-08-03T17:33:54.799Z,35.60
2022-08-03T17:44:15.879Z,34.39
2022-08-03T17:53:47.080Z,35.29
2022-08-03T18:03:58.594Z,34.38
2022-08-03T18:13:57.711Z,31.82
2022-08-03T18:23:50.361Z,29.41
2022-08-03T18:34:19.854Z,28.47
2022-08-03T18:44:07.237Z,27.67
2022-08-03T18:54:02.143Z,26.91
2022-08-03T19:03:48.375Z,26.43
2022-08-03T19:13:50.478Z,26.68
2022-08-03T19:23:47.770Z,27.10
2022-08-03T19:43:52.894Z,27.16
2022-08-03T19:53:48.318Z,26.36
2022-08-03T20:03:48.514Z,25.86
2022-08-03T20:13:48.872Z,25.69
2022-08-03T20:24:01.680Z,25.19
2022-08-03T20:33:49.900Z,24.56
2022-08-03T20:43:49.255Z,24.04
2022-08-03T20:53:59.452Z,23.79
2022-08-03T21:03:55.419Z,22.90
2022-08-03T21:13:02.505Z,27.43
2022-08-03T21:13:50.543Z,22.47
2022-08-03T21:23:49.985Z,22.64
2022-08-03T21:33:49.925Z,22.31
2022-08-03T21:43:50.101Z,21.85
2022-08-03T21:54:04.373Z,21.79
2022-08-03T22:03:53.025Z,21.64
2022-08-03T22:13:50.571Z,21.46
2022-08-03T22:23:50.735Z,21.46
2022-08-03T22:33:50.907Z,21.11
2022-08-03T22:43:51.118Z,21.21
2022-08-03T22:53:51.296Z,21.36
2022-08-03T23:03:58.764Z,21.04
2022-08-03T23:13:52.657Z,21.63
2022-08-03T23:23:52.007Z,21.46
2022-08-03T23:33:51.995Z,21.19
2022-08-03T23:43:54.158Z,20.74
2022-08-03T23:53:52.362Z,20.46
